Time;durP1;ratioP1;P1;durP2;ratioP2;P2;SDS_P1;SDS_P2;PMS_P1;PMS_P2;Temp;Humidity;BMP_temperature;BMP_pressure;BME280_temperature;BME280_humidity;BME280_pressure;Samples;Min_cycle;Max_cycle;Signal;HPM_P1;HPM_P2
2022/05/13 00:00:13;;;;;;;4.80;1.45;;;11.50;99.90;;;;;;5103917;28;20036;-69
2022/05/13 00:02:40;;;;;;;2.22;1.20;;;11.50;99.90;;;;;;5090949;28;20044;-71
2022/05/13 00:05:07;;;;;;;4.65;1.50;;;11.50;99.90;;;;;;5080736;28;20040;-75
2022/05/13 00:07:34;;;;;;;2.22;1.00;;;11.50;99.90;;;;;;5103025;28;20142;-76
2022/05/13 00:10:05;;;;;;;;;;;11.60;99.90;;;;;;5108896;28;20122;-70
2022/05/13 00:12:38;;;;;;;3.53;1.10;;;11.60;99.90;;;;;;5105972;28;19916;-70
2022/05/13 00:15:07;;;;;;;4.55;1.88;;;11.60;99.90;;;;;;5088320;28;20568;-70
2022/05/13 00:17:33;;;;;;;4.72;1.30;;;11.60;99.90;;;;;;5088619;28;20058;-70
2022/05/13 00:19:59;;;;;;;2.78;1.30;;;11.60;99.90;;;;;;5074233;28;20382;-70
2022/05/13 00:22:25;;;;;;;3.85;1.30;;;11.60;99.90;;;;;;5108121;28;20139;-70
2022/05/13 00:24:54;;;;;;;;;;;11.60;99.90;;;;;;5101075;28;20036;-69
2022/05/13 00:27:21;;;;;;;3.20;1.30;;;11.70;99.90;;;;;;5099056;28;19920;-69
2022/05/13 00:29:47;;;;;;;4.07;1.25;;;11.70;99.90;;;;;;5103992;28;20471;-75
2022/05/13 00:32:12;;;;;;;3.22;1.20;;;11.70;99.90;;;;;;5103719;28;20099;-70
2022/05/13 00:34:38;;;;;;;2.70;1.30;;;11.70;99.90;;;;;;5094764;28;20054;-68
2022/05/13 00:37:04;;;;;;;2.67;1.13;;;11.70;99.90;;;;;;5086561;28;20039;-73
2022/05/13 00:39:30;;;;;;;4.35;1.40;;;11.80;99.90;;;;;;5063241;28;20085;-70
2022/05/13 00:42:05;;;;;;;4.03;1.50;;;11.70;99.90;;;;;;5101120;28;20122;-70
2022/05/13 00:44:30;;;;;;;2.80;1.20;;;11.80;99.90;;;;;;5103284;28;20391;-70
2022/05/13 00:46:56;;;;;;;2.55;1.05;;;11.80;99.90;;;;;;5077876;28;20036;-70
2022/05/13 00:49:22;;;;;;;2.97;1.15;;;11.80;99.90;;;;;;5083717;28;20054;-70
2022/05/13 00:51:48;;;;;;;5.55;1.63;;;11.80;99.90;;;;;;5077517;28;20115;-71
2022/05/13 00:54:16;;;;;;;4.72;1.60;;;11.70;99.90;;;;;;5099226;28;20535;-69
2022/05/13 00:56:45;;;;;;;4.97;1.83;;;11.80;99.90;;;;;;5100811;28;20802;-70
2022/05/13 00:59:15;;;;;;;3.60;1.30;;;11.80;99.90;;;;;;5091606;28;20077;-70
2022/05/13 01:01:41;;;;;;;4.85;1.50;;;11.80;99.90;;;;;;5091519;28;20036;-70
2022/05/13 01:04:13;;;;;;;6.53;2.03;;;11.80;99.90;;;;;;5079063;28;20051;-70
2022/05/13 01:06:44;;;;;;;4.65;1.80;;;11.80;99.90;;;;;;5110529;28;20119;-71
2022/05/13 01:09:10;;;;;;;3.55;1.45;;;11.80;99.90;;;;;;5099129;28;20051;-69
2022/05/13 01:11:38;;;;;;;2.38;1.10;;;11.70;99.90;;;;;;5076916;28;20332;-70
2022/05/13 01:14:29;;;;;;;2.88;1.20;;;11.70;99.90;;;;;;5101351;28;20093;-74
2022/05/13 01:20:12;;;;;;;3.92;1.60;;;11.70;99.90;;;;;;5107183;27;20048;-71
2022/05/13 01:23:10;;;;;;;4.63;1.50;;;11.70;99.90;;;;;;5100521;28;20154;-74
2022/05/13 01:25:43;;;;;;;3.58;1.50;;;11.70;99.90;;;;;;5095335;28;20118;-69
2022/05/13 01:28:16;;;;;;;3.65;1.10;;;11.70;99.90;;;;;;5110590;28;20062;-74
2022/05/13 01:30:45;;;;;;;3.08;1.27;;;11.70;99.90;;;;;;5107704;28;20366;-70
2022/05/13 01:33:12;;;;;;;5.10;1.42;;;11.70;99.90;;;;;;5078312;28;20085;-75
2022/05/13 01:35:43;;;;;;;4.35;1.63;;;11.70;99.90;;;;;;5081755;28;20131;-70
2022/05/13 01:38:10;;;;;;;8.48;1.80;;;11.70;99.90;;;;;;5110307;28;20062;-69
2022/05/13 01:40:37;;;;;;;5.57;1.58;;;11.70;99.90;;;;;;5096104;28;20458;-74
2022/05/13 01:43:03;;;;;;;;;;;11.70;99.90;;;;;;5068270;28;20451;-74
2022/05/13 01:45:28;;;;;;;4.68;1.85;;;11.70;99.90;;;;;;5096908;28;19930;-70
2022/05/13 01:47:54;;;;;;;5.78;1.80;;;11.70;99.90;;;;;;5091677;28;20032;-75
2022/05/13 01:50:22;;;;;;;4.72;1.48;;;11.70;99.90;;;;;;5104259;28;21610;-69
2022/05/13 01:52:48;;;;;;;7.82;1.90;;;11.70;99.90;;;;;;5107088;28;20047;-69
2022/05/13 01:55:13;;;;;;;5.03;2.08;;;11.70;99.90;;;;;;5080203;28;20058;-70
2022/05/13 01:57:39;;;;;;;3.83;1.63;;;11.70;99.90;;;;;;5099970;27;20040;-75
2022/05/13 02:00:05;;;;;;;6.05;1.80;;;11.80;99.90;;;;;;5073223;28;20123;-69
2022/05/13 02:03:43;;;;;;;4.85;1.67;;;11.80;99.90;;;;;;5097659;28;20371;-70
2022/05/13 02:05:17;;;;;;;4.97;1.48;;;11.80;99.90;;;;;;5105519;28;20044;-74
2022/05/13 02:07:42;;;;;;;4.30;2.10;;;11.80;99.90;;;;;;5095981;28;20039;-70
2022/05/13 02:10:08;;;;;;;4.45;2.00;;;11.80;99.90;;;;;;5093710;28;20361;-70
2022/05/13 02:12:34;;;;;;;7.20;2.40;;;11.80;99.90;;;;;;5107068;28;20139;-76
2022/05/13 02:14:59;;;;;;;7.15;1.95;;;11.80;99.90;;;;;;5089909;28;20428;-69
2022/05/13 02:17:25;;;;;;;7.15;2.20;;;11.80;99.90;;;;;;5094014;28;20067;-70
2022/05/13 02:19:51;;;;;;;7.13;2.17;;;11.80;99.90;;;;;;5106916;28;20102;-75
2022/05/13 02:22:17;;;;;;;6.40;2.15;;;11.80;99.90;;;;;;5099015;28;20044;-74
2022/05/13 02:24:42;;;;;;;6.13;2.10;;;11.80;99.90;;;;;;5106871;28;20078;-69
2022/05/13 02:27:08;;;;;;;7.55;2.10;;;11.80;99.90;;;;;;5108339;28;20039;-75
2022/05/13 02:29:33;;;;;;;4.72;1.95;;;11.80;99.90;;;;;;5099743;28;20091;-70
2022/05/13 02:31:59;;;;;;;4.60;1.98;;;11.80;99.90;;;;;;5101229;28;20116;-70
2022/05/13 02:34:25;;;;;;;7.18;2.00;;;11.80;99.90;;;;;;5090825;28;20116;-69
2022/05/13 02:36:50;;;;;;;7.95;2.40;;;11.80;99.90;;;;;;5106165;28;20126;-74
2022/05/13 02:39:16;;;;;;;6.10;2.30;;;11.80;99.90;;;;;;5093893;28;20040;-70
2022/05/13 02:41:44;;;;;;;5.00;2.03;;;11.80;99.90;;;;;;5076826;28;20039;-75
2022/05/13 02:44:10;;;;;;;7.88;2.28;;;11.80;99.90;;;;;;5098199;28;20503;-75
2022/05/13 02:46:36;;;;;;;4.97;2.03;;;11.80;99.90;;;;;;5107272;28;20368;-70
2022/05/13 02:49:02;;;;;;;7.72;2.30;;;11.80;99.90;;;;;;5073665;28;20051;-74
2022/05/13 02:51:29;;;;;;;6.90;2.67;;;11.70;99.90;;;;;;5081181;28;20119;-70
2022/05/13 02:53:55;;;;;;;7.43;2.30;;;11.70;99.90;;;;;;5087309;28;20052;-70
2022/05/13 02:56:21;;;;;;;4.60;1.80;;;11.80;99.90;;;;;;5101177;28;20054;-76
2022/05/13 02:58:47;;;;;;;10.23;2.85;;;11.80;99.90;;;;;;5103918;28;20677;-75
2022/05/13 03:01:15;;;;;;;6.88;2.17;;;11.80;99.90;;;;;;5095338;28;20040;-70
2022/05/13 03:03:43;;;;;;;6.18;2.15;;;11.80;99.90;;;;;;5080219;28;20424;-75
2022/05/13 03:06:09;;;;;;;8.82;2.60;;;11.80;99.90;;;;;;5085847;28;20135;-75
2022/05/13 03:08:35;;;;;;;;;;;11.80;99.90;;;;;;5097219;28;20032;-71
2022/05/13 03:11:02;;;;;;;6.70;2.67;;;11.80;99.90;;;;;;5107292;28;19919;-75
2022/05/13 03:13:28;;;;;;;11.02;2.83;;;11.80;99.90;;;;;;5079694;28;20036;-75
2022/05/13 03:15:54;;;;;;;7.43;2.58;;;11.80;99.90;;;;;;5104407;28;20388;-75
2022/05/13 03:18:20;;;;;;;8.52;2.38;;;11.80;99.90;;;;;;5089323;28;20042;-70
2022/05/13 03:20:45;;;;;;;11.93;3.10;;;11.80;99.90;;;;;;5095560;28;20043;-75
2022/05/13 03:23:11;;;;;;;7.88;2.45;;;11.80;99.90;;;;;;5085196;28;20093;-75
2022/05/13 03:25:37;;;;;;;8.52;2.70;;;11.80;99.90;;;;;;5090252;28;20082;-75
2022/05/13 03:28:03;;;;;;;8.38;2.92;;;11.80;99.90;;;;;;5095429;28;20306;-70
2022/05/13 03:30:29;;;;;;;10.43;2.20;;;11.80;99.90;;;;;;5097388;28;20089;-70
2022/05/13 03:32:55;;;;;;;7.95;2.55;;;11.80;99.90;;;;;;5088887;28;20051;-75
2022/05/13 03:35:22;;;;;;;6.68;2.00;;;11.80;99.90;;;;;;5106886;28;20104;-75
2022/05/13 03:37:48;;;;;;;5.95;2.53;;;11.80;99.90;;;;;;5095813;28;20039;-75
2022/05/13 03:40:16;;;;;;;5.22;2.08;;;11.80;99.90;;;;;;5093325;28;20493;-75
2022/05/13 03:42:42;;;;;;;5.25;1.60;;;11.80;99.90;;;;;;5080701;28;20036;-75
2022/05/13 03:45:13;;;;;;;9.25;2.42;;;11.80;99.90;;;;;;5100434;28;20190;-70
2022/05/13 03:47:39;;;;;;;7.85;2.38;;;11.80;99.90;;;;;;5099161;28;20091;-75
2022/05/13 03:50:06;;;;;;;7.30;2.80;;;11.80;99.90;;;;;;5080557;28;20119;-75
2022/05/13 03:52:32;;;;;;;7.35;2.80;;;11.70;99.90;;;;;;5083096;28;20143;-70
2022/05/13 03:54:58;;;;;;;6.20;2.08;;;11.70;99.90;;;;;;5078064;28;20127;-69
2022/05/13 03:57:24;;;;;;;8.55;2.38;;;11.70;99.90;;;;;;5096193;28;20039;-76
2022/05/13 03:59:50;;;;;;;9.50;2.60;;;11.70;99.90;;;;;;5102437;28;20031;-74
2022/05/13 04:02:16;;;;;;;11.70;2.88;;;11.70;99.90;;;;;;5090857;28;20047;-74
2022/05/13 04:10:09;;;;;;;9.25;2.60;;;11.70;99.90;;;;;;5098580;28;20098;-74
2022/05/13 04:18:04;;;;;;;10.10;2.97;;;11.80;99.90;;;;;;5096346;28;20070;-69
2022/05/13 04:20:30;;;;;;;9.68;2.50;;;11.80;99.90;;;;;;5094995;28;20436;-69
2022/05/13 04:22:56;;;;;;;11.10;2.88;;;11.90;99.90;;;;;;5079950;28;20514;-73
2022/05/13 04:25:23;;;;;;;10.35;2.92;;;11.90;99.90;;;;;;5091259;28;20040;-74
2022/05/13 04:27:48;;;;;;;13.63;3.72;;;12.00;99.90;;;;;;5059331;28;20398;-75
2022/05/13 04:30:14;;;;;;;8.85;2.88;;;12.00;99.90;;;;;;5103225;28;20043;-70
2022/05/13 04:32:40;;;;;;;12.30;2.95;;;12.00;99.90;;;;;;5089781;28;20143;-69
2022/05/13 04:35:06;;;;;;;13.43;3.20;;;12.10;99.90;;;;;;5104111;28;20059;-74
2022/05/13 04:37:31;;;;;;;;;;;12.10;99.90;;;;;;5089498;28;20040;-71
2022/05/13 04:39:57;;;;;;;9.63;2.78;;;12.10;99.90;;;;;;5091318;28;19920;-75
2022/05/13 04:45:08;;;;;;;8.85;2.47;;;12.10;99.90;;;;;;5105781;28;20047;-70
2022/05/13 04:50:21;;;;;;;10.70;3.00;;;12.20;99.90;;;;;;5107496;28;20162;-74
2022/05/13 04:52:47;;;;;;;7.50;2.15;;;12.20;99.90;;;;;;5095978;28;20040;-69
2022/05/13 04:55:13;;;;;;;8.20;2.42;;;12.20;99.90;;;;;;5100636;28;20100;-74
2022/05/13 04:57:39;;;;;;;10.25;3.05;;;12.20;99.90;;;;;;5100662;28;20059;-69
2022/05/13 05:00:07;;;;;;;11.27;2.53;;;12.20;99.90;;;;;;5091818;28;20447;-74
2022/05/13 05:02:33;;;;;;;11.10;2.45;;;12.30;99.90;;;;;;5092812;28;20051;-75
2022/05/13 05:05:00;;;;;;;9.45;2.67;;;12.30;99.90;;;;;;5111724;28;20093;-74
2022/05/13 05:07:25;;;;;;;9.52;2.58;;;12.30;99.90;;;;;;5102221;28;20126;-74
2022/05/13 05:09:51;;;;;;;7.95;2.17;;;12.40;99.90;;;;;;5081476;28;20127;-75
2022/05/13 05:12:17;;;;;;;8.65;2.13;;;12.40;99.90;;;;;;5073789;28;20043;-75
2022/05/13 05:14:44;;;;;;;5.78;2.00;;;12.50;99.90;;;;;;5075329;28;20044;-74
2022/05/13 05:17:10;;;;;;;9.50;2.28;;;12.50;99.90;;;;;;5105875;28;20048;-75
2022/05/13 05:19:36;;;;;;;7.30;1.95;;;12.50;99.90;;;;;;5078986;28;20119;-75
2022/05/13 05:22:02;;;;;;;9.40;2.25;;;12.60;99.90;;;;;;5103737;28;20118;-71
2022/05/13 05:24:28;;;;;;;6.43;1.92;;;12.60;99.90;;;;;;5083475;28;20059;-74
2022/05/13 05:26:54;;;;;;;7.70;1.88;;;12.60;99.90;;;;;;5099218;28;20532;-71
2022/05/13 05:29:19;;;;;;;5.82;1.90;;;12.60;99.90;;;;;;5101182;28;20071;-74
2022/05/13 05:31:45;;;;;;;7.93;1.85;;;12.70;99.90;;;;;;5107929;27;20041;-70
2022/05/13 05:34:11;;;;;;;4.45;1.60;;;12.70;99.90;;;;;;5100077;28;20082;-75
2022/05/13 05:36:37;;;;;;;6.72;1.65;;;12.70;99.90;;;;;;5110224;28;20047;-70
2022/05/13 05:39:03;;;;;;;5.78;1.88;;;12.80;99.90;;;;;;5098482;28;20082;-74
2022/05/13 05:41:29;;;;;;;7.35;1.90;;;12.90;99.90;;;;;;5100528;28;20031;-70
2022/05/13 05:43:54;;;;;;;9.55;2.22;;;13.00;99.90;;;;;;5078003;28;20044;-75
2022/05/13 05:46:20;;;;;;;6.28;1.90;;;13.00;99.90;;;;;;5110919;28;20040;-74
2022/05/13 05:48:46;;;;;;;8.13;2.08;;;13.10;99.90;;;;;;5093147;28;20044;-69
2022/05/13 05:51:11;;;;;;;9.52;2.30;;;13.10;99.90;;;;;;5072636;28;20043;-70
2022/05/13 05:59:07;;;;;;;5.57;1.83;;;13.10;99.90;;;;;;5079263;28;20055;-73
2022/05/13 06:01:33;;;;;;;6.25;1.70;;;13.10;99.90;;;;;;5093624;28;20036;-74
2022/05/13 06:03:59;;;;;;;5.60;1.55;;;13.10;99.90;;;;;;5093367;28;20451;-69
2022/05/13 06:06:25;;;;;;;6.03;1.60;;;13.10;99.90;;;;;;5084621;28;20043;-74
2022/05/13 06:08:55;;;;;;;8.48;2.10;;;13.10;99.90;;;;;;5079150;28;20039;-75
2022/05/13 06:11:24;;;;;;;8.38;1.88;;;13.10;99.90;;;;;;5081714;28;20075;-75
2022/05/13 06:13:57;;;;;;;6.75;1.80;;;13.10;99.90;;;;;;5092568;27;20044;-74
2022/05/13 06:16:25;;;;;;;5.57;1.73;;;13.10;99.90;;;;;;5091626;28;20091;-75
2022/05/13 06:18:51;;;;;;;5.85;2.00;;;13.10;99.90;;;;;;5092079;28;20055;-67
2022/05/13 06:21:17;;;;;;;4.53;1.48;;;13.20;99.90;;;;;;5093585;28;20062;-68
2022/05/13 06:23:43;;;;;;;8.85;1.75;;;13.20;99.90;;;;;;5100637;28;20050;-68
2022/05/13 06:26:08;;;;;;;5.47;1.63;;;13.20;99.90;;;;;;5098558;28;20039;-68
2022/05/13 06:28:34;;;;;;;4.97;1.63;;;13.30;99.90;;;;;;5064638;28;20421;-68
2022/05/13 06:31:00;;;;;;;5.97;1.60;;;13.30;99.90;;;;;;5098744;28;20051;-68
2022/05/13 06:33:26;;;;;;;6.97;1.90;;;13.30;99.90;;;;;;5105802;28;20039;-68
2022/05/13 06:35:52;;;;;;;6.13;1.50;;;13.30;99.90;;;;;;5077857;28;20043;-69
2022/05/13 06:38:20;;;;;;;6.57;1.90;;;13.30;99.90;;;;;;5080616;28;20080;-68
2022/05/13 06:40:50;;;;;;;6.15;1.77;;;13.30;99.90;;;;;;5078943;28;20047;-68
2022/05/13 06:43:16;;;;;;;7.18;1.90;;;13.40;99.90;;;;;;5094970;28;20036;-68
2022/05/13 06:45:43;;;;;;;6.03;1.70;;;13.40;99.90;;;;;;5097832;28;20150;-68
2022/05/13 06:48:09;;;;;;;7.07;1.80;;;13.50;99.90;;;;;;5083015;28;20059;-68
2022/05/13 06:50:35;;;;;;;5.88;1.83;;;13.60;99.90;;;;;;5081095;28;20127;-68
2022/05/13 06:53:01;;;;;;;8.05;1.73;;;13.60;99.90;;;;;;5097535;28;20180;-69
2022/05/13 06:55:27;;;;;;;11.40;2.55;;;13.70;99.90;;;;;;5095675;28;20044;-68
2022/05/13 06:57:52;;;;;;;8.55;1.98;;;13.70;99.90;;;;;;5094235;28;20032;-69
2022/05/13 07:00:18;;;;;;;7.03;1.83;;;13.70;99.90;;;;;;5093634;28;20046;-70
2022/05/13 07:02:44;;;;;;;3.92;1.40;;;13.90;99.90;;;;;;5086017;28;20040;-69
2022/05/13 07:05:13;;;;;;;6.22;1.67;;;14.00;99.90;;;;;;5099558;28;20108;-70
2022/05/13 07:07:39;;;;;;;7.35;1.83;;;14.00;99.90;;;;;;5094477;28;20058;-70
2022/05/13 07:10:06;;;;;;;6.40;1.70;;;14.00;99.90;;;;;;5078798;28;20036;-69
2022/05/13 07:12:32;;;;;;;9.25;1.92;;;13.90;99.90;;;;;;5094109;28;20050;-69
2022/05/13 07:14:58;;;;;;;;;;;13.80;99.90;;;;;;5105247;28;20122;-69
2022/05/13 07:17:24;;;;;;;6.82;1.50;;;13.70;99.90;;;;;;5113848;27;19924;-69
2022/05/13 07:19:50;;;;;;;4.75;1.63;;;13.80;99.90;;;;;;5080045;28;20399;-69
2022/05/13 07:22:15;;;;;;;5.00;1.80;;;13.90;99.90;;;;;;5071949;28;20072;-70
2022/05/13 07:24:41;;;;;;;7.30;1.80;;;14.00;99.90;;;;;;5078652;28;20039;-70
2022/05/13 07:27:07;;;;;;;5.72;1.40;;;14.20;99.90;;;;;;5094211;28;20047;-69
2022/05/13 07:29:33;;;;;;;7.97;2.00;;;14.20;99.90;;;;;;5077138;28;20394;-68
2022/05/13 07:31:58;;;;;;;6.03;1.65;;;14.30;99.90;;;;;;5078172;28;20040;-68
2022/05/13 07:34:24;;;;;;;6.03;1.60;;;14.60;99.90;;;;;;5108622;28;20501;-68
2022/05/13 07:36:53;;;;;;;3.08;1.13;;;14.80;99.90;;;;;;5109281;28;20505;-68
2022/05/13 07:42:08;;;;;;;5.70;1.80;;;15.40;99.90;;;;;;5097230;28;20144;-68
2022/05/13 07:44:34;;;;;;;5.45;1.50;;;15.40;99.90;;;;;;5092345;28;20530;-68
2022/05/13 07:47:01;;;;;;;7.40;1.70;;;15.50;99.90;;;;;;5093026;28;20376;-68
2022/05/13 07:49:27;;;;;;;5.40;1.60;;;15.60;99.90;;;;;;5109295;28;20043;-69
2022/05/13 07:51:52;;;;;;;;;;;15.30;99.90;;;;;;5092334;28;20097;-68
2022/05/13 07:54:18;;;;;;;4.00;1.30;;;15.30;99.90;;;;;;5108961;28;19927;-68
2022/05/13 07:56:44;;;;;;;3.42;1.30;;;15.20;99.90;;;;;;5109085;28;20104;-69
2022/05/13 07:59:10;;;;;;;5.65;1.20;;;15.00;99.90;;;;;;5092247;28;20119;-69
2022/05/13 08:01:36;;;;;;;6.82;1.50;;;14.70;99.90;;;;;;5109193;28;20031;-69
2022/05/13 08:04:02;;;;;;;5.20;1.42;;;15.00;99.90;;;;;;5109228;28;20043;-68
2022/05/13 08:06:28;;;;;;;5.93;1.45;;;15.30;99.90;;;;;;5109117;28;20379;-68
2022/05/13 08:08:56;;;;;;;5.03;1.30;;;15.20;99.90;;;;;;5108872;28;20122;-68
2022/05/13 08:11:23;;;;;;;7.03;2.05;;;15.10;99.90;;;;;;5110369;28;20035;-68
2022/05/13 08:13:49;;;;;;;5.22;1.50;;;14.90;99.90;;;;;;5098669;28;20031;-68
2022/05/13 08:16:16;;;;;;;;;;;14.70;99.90;;;;;;5113673;28;20036;-69
2022/05/13 08:18:43;;;;;;;6.47;1.30;;;14.70;99.90;;;;;;5113068;28;19972;-68
2022/05/13 08:21:08;;;;;;;3.78;1.13;;;14.50;99.90;;;;;;5113203;28;20040;-68
2022/05/13 08:23:35;;;;;;;4.65;1.33;;;14.40;99.90;;;;;;5112866;28;20384;-68
2022/05/13 08:26:00;;;;;;;3.60;1.05;;;14.40;99.90;;;;;;5112941;28;20043;-69
2022/05/13 08:28:26;;;;;;;3.35;1.35;;;14.50;99.90;;;;;;5113205;28;20074;-68
2022/05/13 08:30:52;;;;;;;6.38;1.50;;;15.00;99.90;;;;;;5113086;28;20051;-68
2022/05/13 08:33:18;;;;;;;6.15;1.77;;;15.20;99.90;;;;;;5112768;28;20057;-69
2022/05/13 08:35:48;;;;;;;;;;;15.10;99.90;;;;;;5103239;28;20499;-68
2022/05/13 08:38:21;;;;;;;3.67;1.10;;;15.00;99.90;;;;;;5098703;28;19924;-68
2022/05/13 08:40:50;;;;;;;3.38;1.20;;;15.00;99.90;;;;;;5102546;28;20070;-68
2022/05/13 08:43:26;;;;;;;5.10;1.35;;;15.40;99.90;;;;;;5078035;28;20506;-69
2022/05/13 08:46:08;;;;;;;5.57;1.23;;;15.90;99.90;;;;;;5100113;28;20040;-69
2022/05/13 08:48:45;;;;;;;3.67;1.20;;;15.70;99.90;;;;;;5096292;28;20043;-68
2022/05/13 08:51:24;;;;;;;7.65;1.65;;;15.60;99.90;;;;;;5082857;28;20040;-69
2022/05/13 08:54:11;;;;;;;4.70;1.40;;;15.40;99.90;;;;;;5095129;28;20052;-68
2022/05/13 08:56:38;;;;;;;3.28;1.05;;;15.20;99.90;;;;;;5098686;28;20385;-68
2022/05/13 08:59:14;;;;;;;2.95;0.95;;;15.20;99.90;;;;;;5098699;28;20042;-71
2022/05/13 09:01:48;;;;;;;6.40;1.50;;;15.20;99.90;;;;;;5101727;28;20092;-70
2022/05/13 09:04:47;;;;;;;5.53;1.48;;;15.20;99.90;;;;;;5103658;28;20048;-69
2022/05/13 09:07:20;;;;;;;4.63;1.23;;;15.30;99.90;;;;;;5091567;28;20055;-71
2022/05/13 09:09:50;;;;;;;4.18;1.30;;;15.30;99.90;;;;;;5082202;28;20047;-69
2022/05/13 09:12:35;;;;;;;3.78;1.27;;;15.40;99.90;;;;;;5081218;28;20044;-69
2022/05/13 09:15:00;;;;;;;4.80;1.52;;;15.30;99.90;;;;;;5105425;28;20096;-70
2022/05/13 09:17:46;;;;;;;6.32;1.33;;;15.20;99.90;;;;;;5100034;28;20067;-69
2022/05/13 09:20:21;;;;;;;5.40;1.10;;;15.60;99.90;;;;;;5100227;28;20359;-69
2022/05/13 09:22:52;;;;;;;3.03;1.30;;;15.70;99.90;;;;;;5092708;28;20135;-69
2022/05/13 09:25:24;;;;;;;6.18;1.50;;;15.70;99.90;;;;;;5110203;28;20051;-70
2022/05/13 09:27:56;;;;;;;4.25;1.40;;;15.50;99.90;;;;;;5097452;28;20392;-70
2022/05/13 09:30:28;;;;;;;6.90;1.55;;;15.10;99.90;;;;;;5080813;28;20051;-70
2022/05/13 09:32:54;;;;;;;4.32;1.00;;;15.20;99.90;;;;;;5090795;28;20075;-70
2022/05/13 09:35:28;;;;;;;3.08;0.90;;;15.40;99.90;;;;;;5101727;28;20063;-70
2022/05/13 09:37:55;;;;;;;4.90;1.23;;;15.40;99.90;;;;;;5104320;28;20059;-70
2022/05/13 09:40:26;;;;;;;3.33;1.08;;;15.20;99.90;;;;;;5097804;28;20039;-70
2022/05/13 09:42:54;;;;;;;2.78;0.93;;;15.10;99.90;;;;;;5098296;28;20475;-70
2022/05/13 09:45:29;;;;;;;2.13;0.70;;;15.10;99.90;;;;;;5084490;28;20096;-70
2022/05/13 09:48:04;;;;;;;2.03;0.68;;;15.00;99.90;;;;;;5097694;28;20040;-70
2022/05/13 09:50:34;;;;;;;4.68;1.05;;;15.10;99.90;;;;;;5095663;28;20843;-70
2022/05/13 09:53:20;;;;;;;3.45;1.20;;;15.20;99.90;;;;;;5098098;28;20085;-77
2022/05/13 09:55:54;;;;;;;3.22;0.93;;;15.10;99.90;;;;;;5084987;28;20467;-75
2022/05/13 09:58:22;;;;;;;4.72;1.15;;;15.10;99.90;;;;;;5097526;28;20036;-76
2022/05/13 10:00:52;;;;;;;3.63;1.15;;;15.10;99.90;;;;;;5098272;28;20040;-76
2022/05/13 10:03:29;;;;;;;4.03;1.20;;;15.10;99.90;;;;;;5086719;28;20088;-76
2022/05/13 10:06:16;;;;;;;3.25;1.00;;;15.30;99.90;;;;;;5099437;28;20133;-76
2022/05/13 10:13:57;;;;;;;8.60;1.45;;;15.60;99.90;;;;;;5102853;28;20081;-75
2022/05/13 10:15:20;;;;;;;4.22;1.30;;;15.70;99.90;;;;;;5104074;28;20060;-75
2022/05/13 10:18:12;;;;;;;5.78;1.33;;;16.10;99.90;;;;;;5097627;28;20122;-77
2022/05/13 10:20:43;;;;;;;4.90;1.63;;;16.80;99.90;;;;;;5098678;28;20071;-76
2022/05/13 10:23:45;;;;;;;5.95;1.65;;;17.00;99.90;;;;;;5083909;28;20040;-75
2022/05/13 10:26:15;;;;;;;6.30;1.48;;;17.50;99.90;;;;;;5071557;28;20052;-76
2022/05/13 10:28:54;;;;;;;4.75;1.58;;;17.60;99.90;;;;;;5092534;28;20359;-76
2022/05/13 10:31:22;;;;;;;6.75;1.50;;;17.10;99.90;;;;;;5094667;28;20078;-75
2022/05/13 10:34:01;;;;;;;7.13;1.77;;;16.50;99.90;;;;;;5095834;28;20039;-76
2022/05/13 10:36:42;;;;;;;7.03;1.83;;;16.10;99.90;;;;;;5093916;28;20097;-76
2022/05/13 10:39:19;;;;;;;5.35;1.40;;;16.50;99.90;;;;;;5094794;28;20044;-76
2022/05/13 10:42:03;;;;;;;4.95;1.58;;;16.90;99.90;;;;;;5091753;28;20043;-76
2022/05/13 10:44:54;;;;;;;3.30;1.30;;;16.70;99.90;;;;;;5088964;28;20122;-75
2022/05/13 10:47:26;;;;;;;3.58;1.30;;;16.80;99.90;;;;;;5092205;28;20040;-76
2022/05/13 10:49:51;;;;;;;5.50;1.70;;;16.30;99.90;;;;;;5098206;28;20047;-76
2022/05/13 10:52:37;;;;;;;4.90;1.30;;;16.20;99.90;;;;;;5097248;28;20040;-76
2022/05/13 10:55:51;;;;;;;6.97;1.80;;;16.00;99.90;;;;;;5093636;28;20868;-76
2022/05/13 10:58:38;;;;;;;3.63;1.20;;;15.70;99.90;;;;;;5089160;28;20044;-76
2022/05/13 11:01:22;;;;;;;4.85;1.25;;;15.70;99.90;;;;;;5095742;28;20043;-76
2022/05/13 11:04:02;;;;;;;4.05;1.10;;;15.90;99.90;;;;;;5077742;28;20028;-76
2022/05/13 11:06:35;;;;;;;4.78;1.38;;;16.10;99.90;;;;;;5092690;28;20066;-76
2022/05/13 11:09:40;;;;;;;4.65;1.10;;;16.20;99.90;;;;;;5091654;28;20115;-76
2022/05/13 11:12:33;;;;;;;4.20;1.15;;;16.20;99.90;;;;;;5100142;28;20040;-76
2022/05/13 11:15:27;;;;;;;4.70;1.40;;;16.10;99.90;;;;;;5094469;28;20052;-76
2022/05/13 11:17:59;;;;;;;4.13;1.48;;;15.90;99.90;;;;;;5075600;28;20036;-76
2022/05/13 11:20:46;;;;;;;4.05;1.30;;;15.80;99.90;;;;;;5098001;28;20199;-75
2022/05/13 11:23:23;;;;;;;6.43;1.60;;;15.70;99.90;;;;;;5095251;28;20032;-76
2022/05/13 11:26:14;;;;;;;5.78;1.60;;;15.60;99.90;;;;;;5097324;28;20156;-75
2022/05/13 11:29:08;;;;;;;5.50;1.40;;;15.50;99.90;;;;;;5100638;28;20047;-76
2022/05/13 11:32:15;;;;;;;5.05;1.50;;;15.50;99.90;;;;;;5096796;28;20122;-76
2022/05/13 11:35:09;;;;;;;5.53;1.70;;;15.60;99.90;;;;;;5081279;28;21529;-75
2022/05/13 11:37:40;;;;;;;4.45;1.52;;;15.50;99.90;;;;;;5091800;28;20119;-78
2022/05/13 11:40:28;;;;;;;6.03;1.70;;;15.50;99.90;;;;;;5092414;28;20085;-77
2022/05/13 11:43:19;;;;;;;4.53;1.50;;;15.60;99.90;;;;;;5095959;28;20105;-77
2022/05/13 11:45:50;;;;;;;5.55;1.50;;;15.90;99.90;;;;;;5095249;28;20450;-77
2022/05/13 11:48:30;;;;;;;5.75;1.70;;;16.20;99.90;;;;;;5089120;28;20040;-78
2022/05/13 11:51:10;;;;;;;5.45;1.40;;;16.40;99.90;;;;;;5090576;28;20035;-78
2022/05/13 11:53:42;;;;;;;5.28;1.42;;;16.80;99.90;;;;;;5093960;28;20035;-78
2022/05/13 11:56:26;;;;;;;4.25;1.40;;;17.10;99.90;;;;;;5104871;28;20512;-77
2022/05/13 11:59:24;;;;;;;3.33;1.30;;;16.90;99.90;;;;;;5104445;28;20039;-77
2022/05/13 12:01:52;;;;;;;5.18;1.35;;;16.60;99.90;;;;;;5102927;28;20040;-77
2022/05/13 12:04:21;;;;;;;4.97;1.30;;;16.50;99.90;;;;;;5103198;28;20047;-77
2022/05/13 12:06:50;;;;;;;5.07;1.10;;;16.30;99.90;;;;;;5109591;28;20081;-77
2022/05/13 12:09:45;;;;;;;3.63;1.30;;;16.20;99.90;;;;;;5103566;28;20152;-78
2022/05/13 12:12:36;;;;;;;3.05;1.00;;;16.20;99.90;;;;;;5108228;28;20134;-77
2022/05/13 12:15:08;;;;;;;3.85;1.08;;;16.30;99.90;;;;;;5098478;28;20391;-78
2022/05/13 12:17:48;;;;;;;3.50;1.40;;;16.20;99.90;;;;;;5092131;28;20114;-77
2022/05/13 12:20:38;;;;;;;4.72;1.40;;;16.10;99.90;;;;;;5096798;28;20077;-75
2022/05/13 12:23:13;;;;;;;6.70;1.70;;;15.90;99.90;;;;;;5097348;28;20067;-77
2022/05/13 12:25:47;;;;;;;6.40;1.33;;;15.80;99.90;;;;;;5099901;28;20039;-76
2022/05/13 12:28:16;;;;;;;5.85;1.60;;;16.40;99.90;;;;;;5078977;28;20048;-76
2022/05/13 12:30:49;;;;;;;5.63;1.70;;;17.20;99.90;;;;;;5098836;28;20498;-76
2022/05/13 12:33:20;;;;;;;6.18;1.50;;;17.00;99.90;;;;;;5096212;28;20063;-75
2022/05/13 12:39:21;;;;;;;6.03;1.42;;;16.50;99.90;;;;;;5104401;28;20503;-76
2022/05/13 12:42:26;;;;;;;4.00;1.50;;;16.60;99.90;;;;;;5095072;28;20039;-76
2022/05/13 12:45:00;;;;;;;6.55;1.70;;;16.70;99.90;;;;;;5090637;28;20054;-75
2022/05/13 12:47:30;;;;;;;6.68;1.40;;;17.00;99.90;;;;;;5090023;28;20038;-75
2022/05/13 12:50:18;;;;;;;5.60;1.33;;;17.30;99.90;;;;;;5095949;28;20113;-75
2022/05/13 12:52:44;;;;;;;4.07;1.20;;;17.50;99.60;;;;;;5092463;28;20040;-76
2022/05/13 12:55:23;;;;;;;4.57;1.40;;;17.60;99.10;;;;;;5104676;28;20055;-75
2022/05/13 12:58:02;;;;;;;5.20;1.42;;;17.40;99.00;;;;;;5091369;28;20044;-75
2022/05/13 13:00:40;;;;;;;6.00;2.05;;;17.20;99.80;;;;;;5100798;28;20044;-75
2022/05/13 13:03:14;;;;;;;5.70;1.80;;;17.00;99.90;;;;;;5091750;28;20044;-75
2022/05/13 13:05:45;;;;;;;8.25;1.65;;;16.70;99.90;;;;;;5107151;28;20043;-75
2022/05/13 13:08:18;;;;;;;5.82;1.48;;;16.40;99.90;;;;;;5097896;28;20105;-76
2022/05/13 13:10:50;;;;;;;6.28;1.40;;;16.20;99.90;;;;;;5092531;28;20546;-76
2022/05/13 13:13:28;;;;;;;7.53;1.63;;;16.40;99.90;;;;;;5095459;28;20044;-76
2022/05/13 13:15:59;;;;;;;6.68;1.92;;;16.70;99.90;;;;;;5100046;28;20040;-76
2022/05/13 13:18:34;;;;;;;6.63;1.60;;;16.60;99.90;;;;;;5105731;28;20052;-76
2022/05/13 13:21:12;;;;;;;4.60;1.45;;;16.70;99.80;;;;;;5096053;28;20035;-76
2022/05/13 13:23:43;;;;;;;6.03;1.65;;;16.70;99.90;;;;;;5099157;28;20494;-76
2022/05/13 13:26:11;;;;;;;7.70;2.00;;;16.90;99.80;;;;;;5101876;28;20050;-76
2022/05/13 13:28:43;;;;;;;6.20;1.52;;;17.10;99.30;;;;;;5102811;28;20036;-75
2022/05/13 13:31:23;;;;;;;5.13;1.80;;;17.40;99.20;;;;;;5093674;28;20108;-76
2022/05/13 13:33:53;;;;;;;4.55;1.42;;;17.30;98.70;;;;;;5108423;28;20035;-77
2022/05/13 13:36:31;;;;;;;7.13;1.70;;;17.30;97.60;;;;;;5082512;28;20525;-76
2022/05/13 13:38:59;;;;;;;6.55;1.90;;;17.60;98.00;;;;;;5092026;28;20031;-76
2022/05/13 13:41:34;;;;;;;8.18;1.75;;;17.80;96.70;;;;;;5082475;28;20192;-76